sensor_id;sensor_type;location;lat;lon;timestamp;P1;durP1;ratioP1;P2;durP2;ratioP2
82618;SDS011;72286;12.138;-68.936;2023-08-30T00:02:55;9.00;;;3.80;;
82618;SDS011;72286;12.138;-68.936;2023-08-30T00:06:33;12.00;;;4.40;;
82618;SDS011;72286;12.138;-68.936;2023-08-30T00:10:11;11.40;;;4.50;;
82618;SDS011;72286;12.138;-68.936;2023-08-30T00:13:48;11.00;;;5.00;;
82618;SDS011;72286;12.138;-68.936;2023-08-30T00:17:26;8.30;;;4.00;;
82618;SDS011;72286;12.138;-68.936;2023-08-30T00:21:03;9.40;;;3.80;;
82618;SDS011;72286;12.138;-68.936;2023-08-30T00:24:41;10.80;;;4.50;;
82618;SDS011;72286;12.138;-68.936;2023-08-30T00:28:18;11.50;;;4.70;;
82618;SDS011;72286;12.138;-68.936;2023-08-30T00:31:57;11.80;;;4.60;;
82618;SDS011;72286;12.138;-68.936;2023-08-30T00:35:34;11.40;;;4.20;;
82618;SDS011;72286;12.138;-68.936;2023-08-30T00:39:32;14.40;;;4.60;;
82618;SDS011;72286;12.138;-68.936;2023-08-30T00:42:49;11.50;;;5.00;;
82618;SDS011;72286;12.138;-68.936;2023-08-30T00:46:28;7.70;;;4.00;;
82618;SDS011;72286;12.138;-68.936;2023-08-30T00:50:06;7.40;;;4.10;;
82618;SDS011;72286;12.138;-68.936;2023-08-30T00:53:44;10.60;;;4.20;;
82618;SDS011;72286;12.138;-68.936;2023-08-30T00:57:21;11.50;;;4.20;;
82618;SDS011;72286;12.138;-68.936;2023-08-30T01:00:59;12.90;;;4.50;;
82618;SDS011;72286;12.138;-68.936;2023-08-30T01:04:36;11.50;;;4.20;;
82618;SDS011;72286;12.138;-68.936;2023-08-30T01:08:15;9.90;;;3.60;;
82618;SDS011;72286;12.138;-68.936;2023-08-30T01:12:12;12.30;;;4.10;;
82618;SDS011;72286;12.138;-68.936;2023-08-30T01:15:53;13.70;;;4.50;;
82618;SDS011;72286;12.138;-68.936;2023-08-30T01:23:51;12.80;;;4.70;;
82618;SDS011;72286;12.138;-68.936;2023-08-30T01:27:10;13.30;;;4.90;;
82618;SDS011;72286;12.138;-68.936;2023-08-30T01:30:48;7.40;;;3.80;;
82618;SDS011;72286;12.138;-68.936;2023-08-30T01:34:26;9.30;;;3.90;;
82618;SDS011;72286;12.138;-68.936;2023-08-30T01:38:04;8.60;;;3.90;;
82618;SDS011;72286;12.138;-68.936;2023-08-30T01:41:42;11.50;;;4.00;;
82618;SDS011;72286;12.138;-68.936;2023-08-30T01:45:21;8.20;;;3.50;;
82618;SDS011;72286;12.138;-68.936;2023-08-30T01:48:59;12.80;;;4.40;;
82618;SDS011;72286;12.138;-68.936;2023-08-30T01:52:42;10.60;;;3.80;;
82618;SDS011;72286;12.138;-68.936;2023-08-30T01:56:19;9.30;;;3.50;;
82618;SDS011;72286;12.138;-68.936;2023-08-30T01:59:57;7.70;;;3.70;;
82618;SDS011;72286;12.138;-68.936;2023-08-30T02:03:34;11.90;;;4.30;;
82618;SDS011;72286;12.138;-68.936;2023-08-30T02:07:34;11.20;;;4.50;;
82618;SDS011;72286;12.138;-68.936;2023-08-30T02:10:56;11.80;;;3.90;;
82618;SDS011;72286;12.138;-68.936;2023-08-30T02:14:41;12.30;;;4.60;;
82618;SDS011;72286;12.138;-68.936;2023-08-30T02:18:21;10.30;;;4.00;;
82618;SDS011;72286;12.138;-68.936;2023-08-30T02:21:59;7.70;;;3.70;;
82618;SDS011;72286;12.138;-68.936;2023-08-30T02:25:36;8.60;;;3.80;;
82618;SDS011;72286;12.138;-68.936;2023-08-30T02:29:15;10.30;;;4.30;;
82618;SDS011;72286;12.138;-68.936;2023-08-30T02:32:52;9.70;;;3.90;;
82618;SDS011;72286;12.138;-68.936;2023-08-30T02:36:30;7.40;;;3.50;;
82618;SDS011;72286;12.138;-68.936;2023-08-30T02:40:07;11.10;;;3.70;;
82618;SDS011;72286;12.138;-68.936;2023-08-30T02:43:46;7.50;;;3.70;;
82618;SDS011;72286;12.138;-68.936;2023-08-30T02:47:23;12.00;;;3.90;;
82618;SDS011;72286;12.138;-68.936;2023-08-30T02:51:01;9.20;;;4.10;;
82618;SDS011;72286;12.138;-68.936;2023-08-30T02:54:38;7.60;;;3.80;;
82618;SDS011;72286;12.138;-68.936;2023-08-30T02:58:16;7.70;;;3.70;;
82618;SDS011;72286;12.138;-68.936;2023-08-30T03:01:53;11.20;;;4.50;;
82618;SDS011;72286;12.138;-68.936;2023-08-30T03:05:32;11.90;;;3.50;;
82618;SDS011;72286;12.138;-68.936;2023-08-30T03:09:09;9.00;;;3.40;;
82618;SDS011;72286;12.138;-68.936;2023-08-30T03:12:47;12.70;;;4.30;;
82618;SDS011;72286;12.138;-68.936;2023-08-30T03:16:24;9.60;;;3.90;;
82618;SDS011;72286;12.138;-68.936;2023-08-30T03:20:03;7.50;;;3.40;;
82618;SDS011;72286;12.138;-68.936;2023-08-30T03:23:40;11.80;;;3.30;;
82618;SDS011;72286;12.138;-68.936;2023-08-30T03:27:20;10.30;;;3.70;;
82618;SDS011;72286;12.138;-68.936;2023-08-30T03:30:57;7.90;;;3.40;;
82618;SDS011;72286;12.138;-68.936;2023-08-30T03:34:35;7.20;;;3.40;;
82618;SDS011;72286;12.138;-68.936;2023-08-30T03:38:12;13.10;;;4.20;;
82618;SDS011;72286;12.138;-68.936;2023-08-30T03:41:50;8.40;;;3.60;;
82618;SDS011;72286;12.138;-68.936;2023-08-30T03:45:28;11.10;;;3.40;;
82618;SDS011;72286;12.138;-68.936;2023-08-30T03:49:06;8.20;;;3.10;;
82618;SDS011;72286;12.138;-68.936;2023-08-30T03:52:43;10.60;;;3.70;;
82618;SDS011;72286;12.138;-68.936;2023-08-30T03:56:21;8.20;;;3.10;;
82618;SDS011;72286;12.138;-68.936;2023-08-30T03:59:58;12.00;;;3.70;;
82618;SDS011;72286;12.138;-68.936;2023-08-30T04:03:36;9.70;;;3.30;;
82618;SDS011;72286;12.138;-68.936;2023-08-30T04:07:14;9.90;;;3.40;;
82618;SDS011;72286;12.138;-68.936;2023-08-30T04:10:52;8.60;;;3.90;;
82618;SDS011;72286;12.138;-68.936;2023-08-30T04:14:29;7.20;;;3.40;;
82618;SDS011;72286;12.138;-68.936;2023-08-30T04:18:08;9.50;;;3.00;;
82618;SDS011;72286;12.138;-68.936;2023-08-30T04:21:44;8.30;;;3.00;;
82618;SDS011;72286;12.138;-68.936;2023-08-30T04:25:23;7.80;;;3.40;;
82618;SDS011;72286;12.138;-68.936;2023-08-30T04:29:00;10.40;;;3.30;;
82618;SDS011;72286;12.138;-68.936;2023-08-30T04:32:39;7.30;;;3.40;;
82618;SDS011;72286;12.138;-68.936;2023-08-30T04:36:16;9.30;;;3.50;;
82618;SDS011;72286;12.138;-68.936;2023-08-30T04:39:54;9.80;;;3.60;;
82618;SDS011;72286;12.138;-68.936;2023-08-30T04:43:32;9.00;;;2.80;;
82618;SDS011;72286;12.138;-68.936;2023-08-30T04:47:10;8.80;;;3.10;;
82618;SDS011;72286;12.138;-68.936;2023-08-30T04:50:47;8.80;;;3.40;;
82618;SDS011;72286;12.138;-68.936;2023-08-30T04:54:25;19.80;;;4.10;;
82618;SDS011;72286;12.138;-68.936;2023-08-30T04:58:02;9.40;;;3.40;;
82618;SDS011;72286;12.138;-68.936;2023-08-30T05:01:40;9.90;;;3.60;;
82618;SDS011;72286;12.138;-68.936;2023-08-30T05:05:20;10.30;;;3.60;;
82618;SDS011;72286;12.138;-68.936;2023-08-30T05:08:58;8.50;;;3.10;;
82618;SDS011;72286;12.138;-68.936;2023-08-30T05:12:35;8.40;;;3.20;;
82618;SDS011;72286;12.138;-68.936;2023-08-30T05:16:13;9.60;;;3.30;;
82618;SDS011;72286;12.138;-68.936;2023-08-30T05:19:50;7.50;;;3.00;;
82618;SDS011;72286;12.138;-68.936;2023-08-30T05:23:28;10.60;;;3.00;;
82618;SDS011;72286;12.138;-68.936;2023-08-30T05:27:05;7.90;;;3.00;;
82618;SDS011;72286;12.138;-68.936;2023-08-30T05:30:44;8.90;;;3.00;;
82618;SDS011;72286;12.138;-68.936;2023-08-30T05:34:21;9.60;;;3.00;;
82618;SDS011;72286;12.138;-68.936;2023-08-30T05:37:59;9.60;;;3.50;;
82618;SDS011;72286;12.138;-68.936;2023-08-30T05:41:36;10.40;;;3.50;;
82618;SDS011;72286;12.138;-68.936;2023-08-30T05:45:14;10.60;;;3.60;;
82618;SDS011;72286;12.138;-68.936;2023-08-30T05:48:52;6.80;;;2.60;;
82618;SDS011;72286;12.138;-68.936;2023-08-30T05:52:31;7.30;;;3.20;;
82618;SDS011;72286;12.138;-68.936;2023-08-30T05:56:08;8.10;;;3.00;;
82618;SDS011;72286;12.138;-68.936;2023-08-30T05:59:46;8.70;;;3.10;;
82618;SDS011;72286;12.138;-68.936;2023-08-30T06:03:23;8.80;;;2.70;;
82618;SDS011;72286;12.138;-68.936;2023-08-30T06:07:02;9.60;;;2.90;;
82618;SDS011;72286;12.138;-68.936;2023-08-30T06:10:39;9.60;;;2.60;;
82618;SDS011;72286;12.138;-68.936;2023-08-30T06:14:17;9.10;;;3.10;;
82618;SDS011;72286;12.138;-68.936;2023-08-30T06:17:54;9.70;;;3.40;;
82618;SDS011;72286;12.138;-68.936;2023-08-30T06:21:32;11.20;;;3.60;;
82618;SDS011;72286;12.138;-68.936;2023-08-30T06:25:10;8.10;;;2.90;;
82618;SDS011;72286;12.138;-68.936;2023-08-30T06:28:48;10.30;;;3.20;;
82618;SDS011;72286;12.138;-68.936;2023-08-30T06:32:25;11.10;;;3.50;;
82618;SDS011;72286;12.138;-68.936;2023-08-30T06:36:03;11.00;;;3.70;;
82618;SDS011;72286;12.138;-68.936;2023-08-30T06:39:40;9.60;;;3.20;;
82618;SDS011;72286;12.138;-68.936;2023-08-30T06:43:18;9.20;;;2.70;;
82618;SDS011;72286;12.138;-68.936;2023-08-30T06:46:56;12.20;;;3.00;;
82618;SDS011;72286;12.138;-68.936;2023-08-30T06:50:35;11.00;;;3.10;;
82618;SDS011;72286;12.138;-68.936;2023-08-30T06:54:11;9.40;;;3.50;;
82618;SDS011;72286;12.138;-68.936;2023-08-30T06:57:50;12.00;;;3.60;;
82618;SDS011;72286;12.138;-68.936;2023-08-30T07:01:27;10.90;;;2.70;;
82618;SDS011;72286;12.138;-68.936;2023-08-30T07:05:05;10.80;;;3.00;;
82618;SDS011;72286;12.138;-68.936;2023-08-30T07:08:42;7.40;;;2.90;;
82618;SDS011;72286;12.138;-68.936;2023-08-30T07:12:21;11.80;;;3.10;;
82618;SDS011;72286;12.138;-68.936;2023-08-30T07:15:57;11.10;;;2.90;;
82618;SDS011;72286;12.138;-68.936;2023-08-30T07:19:36;10.60;;;2.90;;
82618;SDS011;72286;12.138;-68.936;2023-08-30T07:23:13;8.80;;;2.50;;
82618;SDS011;72286;12.138;-68.936;2023-08-30T07:26:51;15.10;;;2.80;;
82618;SDS011;72286;12.138;-68.936;2023-08-30T07:30:28;11.00;;;2.50;;
82618;SDS011;72286;12.138;-68.936;2023-08-30T07:34:07;11.40;;;3.40;;
82618;SDS011;72286;12.138;-68.936;2023-08-30T07:37:44;9.60;;;3.00;;
82618;SDS011;72286;12.138;-68.936;2023-08-30T07:41:22;15.70;;;2.90;;
82618;SDS011;72286;12.138;-68.936;2023-08-30T07:44:59;7.30;;;2.60;;
82618;SDS011;72286;12.138;-68.936;2023-08-30T07:48:37;9.50;;;3.00;;
82618;SDS011;72286;12.138;-68.936;2023-08-30T07:52:15;11.80;;;2.80;;
82618;SDS011;72286;12.138;-68.936;2023-08-30T07:55:53;8.70;;;2.40;;
82618;SDS011;72286;12.138;-68.936;2023-08-30T07:59:32;11.70;;;2.80;;
82618;SDS011;72286;12.138;-68.936;2023-08-30T08:03:10;9.80;;;2.60;;
82618;SDS011;72286;12.138;-68.936;2023-08-30T08:06:47;16.00;;;2.80;;
82618;SDS011;72286;12.138;-68.936;2023-08-30T08:10:25;7.60;;;2.50;;
82618;SDS011;72286;12.138;-68.936;2023-08-30T08:14:03;7.30;;;2.60;;
82618;SDS011;72286;12.138;-68.936;2023-08-30T08:17:41;7.70;;;2.70;;
82618;SDS011;72286;12.138;-68.936;2023-08-30T08:21:18;9.70;;;2.50;;
82618;SDS011;72286;12.138;-68.936;2023-08-30T08:24:57;11.90;;;2.50;;
82618;SDS011;72286;12.138;-68.936;2023-08-30T08:28:33;13.50;;;3.10;;
82618;SDS011;72286;12.138;-68.936;2023-08-30T08:32:12;9.40;;;2.70;;
82618;SDS011;72286;12.138;-68.936;2023-08-30T08:35:49;9.70;;;2.60;;
82618;SDS011;72286;12.138;-68.936;2023-08-30T08:39:28;8.40;;;2.80;;
82618;SDS011;72286;12.138;-68.936;2023-08-30T08:43:06;9.30;;;2.50;;
82618;SDS011;72286;12.138;-68.936;2023-08-30T08:46:47;9.90;;;2.50;;
82618;SDS011;72286;12.138;-68.936;2023-08-30T08:50:26;7.50;;;2.20;;
82618;SDS011;72286;12.138;-68.936;2023-08-30T08:54:05;9.30;;;2.60;;
82618;SDS011;72286;12.138;-68.936;2023-08-30T08:57:44;8.20;;;2.70;;
82618;SDS011;72286;12.138;-68.936;2023-08-30T09:01:23;10.60;;;2.70;;
82618;SDS011;72286;12.138;-68.936;2023-08-30T09:05:00;9.70;;;3.70;;
82618;SDS011;72286;12.138;-68.936;2023-08-30T09:08:39;13.70;;;2.70;;
82618;SDS011;72286;12.138;-68.936;2023-08-30T09:12:16;7.20;;;2.20;;
82618;SDS011;72286;12.138;-68.936;2023-08-30T09:15:54;10.20;;;2.90;;
82618;SDS011;72286;12.138;-68.936;2023-08-30T09:19:31;10.00;;;3.20;;
82618;SDS011;72286;12.138;-68.936;2023-08-30T09:23:21;11.30;;;2.80;;
82618;SDS011;72286;12.138;-68.936;2023-08-30T09:27:00;8.60;;;2.50;;
82618;SDS011;72286;12.138;-68.936;2023-08-30T09:30:38;10.90;;;2.60;;
82618;SDS011;72286;12.138;-68.936;2023-08-30T09:34:15;10.80;;;2.70;;
82618;SDS011;72286;12.138;-68.936;2023-08-30T09:37:53;9.50;;;2.70;;
82618;SDS011;72286;12.138;-68.936;2023-08-30T09:41:31;12.20;;;3.00;;
82618;SDS011;72286;12.138;-68.936;2023-08-30T09:49:14;9.80;;;2.30;;
82618;SDS011;72286;12.138;-68.936;2023-08-30T09:52:54;11.70;;;2.80;;
82618;SDS011;72286;12.138;-68.936;2023-08-30T09:56:32;12.20;;;2.80;;
82618;SDS011;72286;12.138;-68.936;2023-08-30T10:00:12;11.60;;;2.60;;
82618;SDS011;72286;12.138;-68.936;2023-08-30T10:03:49;12.30;;;3.30;;
82618;SDS011;72286;12.138;-68.936;2023-08-30T10:07:27;10.30;;;2.60;;
82618;SDS011;72286;12.138;-68.936;2023-08-30T10:11:04;9.80;;;3.00;;
82618;SDS011;72286;12.138;-68.936;2023-08-30T10:14:43;13.00;;;2.80;;
82618;SDS011;72286;12.138;-68.936;2023-08-30T10:18:19;10.70;;;3.10;;
82618;SDS011;72286;12.138;-68.936;2023-08-30T10:22:02;10.10;;;3.10;;
82618;SDS011;72286;12.138;-68.936;2023-08-30T10:25:40;10.80;;;2.90;;
82618;SDS011;72286;12.138;-68.936;2023-08-30T10:29:18;13.20;;;3.10;;
82618;SDS011;72286;12.138;-68.936;2023-08-30T10:32:56;11.50;;;3.80;;
82618;SDS011;72286;12.138;-68.936;2023-08-30T10:36:35;12.50;;;3.50;;
82618;SDS011;72286;12.138;-68.936;2023-08-30T10:40:12;9.70;;;2.50;;
82618;SDS011;72286;12.138;-68.936;2023-08-30T10:43:55;10.30;;;2.90;;
82618;SDS011;72286;12.138;-68.936;2023-08-30T10:47:32;10.00;;;2.40;;
82618;SDS011;72286;12.138;-68.936;2023-08-30T10:51:21;11.10;;;2.70;;
82618;SDS011;72286;12.138;-68.936;2023-08-30T10:55:14;12.40;;;3.60;;
82618;SDS011;72286;12.138;-68.936;2023-08-30T10:58:52;13.40;;;3.60;;
82618;SDS011;72286;12.138;-68.936;2023-08-30T11:02:29;17.50;;;3.80;;
82618;SDS011;72286;12.138;-68.936;2023-08-30T11:06:07;17.70;;;3.60;;
82618;SDS011;72286;12.138;-68.936;2023-08-30T11:09:48;18.20;;;6.00;;
82618;SDS011;72286;12.138;-68.936;2023-08-30T11:13:27;12.30;;;3.10;;
82618;SDS011;72286;12.138;-68.936;2023-08-30T11:17:04;13.80;;;3.50;;
82618;SDS011;72286;12.138;-68.936;2023-08-30T11:20:43;16.70;;;3.40;;
82618;SDS011;72286;12.138;-68.936;2023-08-30T11:24:20;7.10;;;2.80;;
82618;SDS011;72286;12.138;-68.936;2023-08-30T11:32:50;14.50;;;3.60;;
82618;SDS011;72286;12.138;-68.936;2023-08-30T11:36:31;9.10;;;2.50;;
82618;SDS011;72286;12.138;-68.936;2023-08-30T11:40:10;9.50;;;2.50;;
82618;SDS011;72286;12.138;-68.936;2023-08-30T11:43:48;7.20;;;2.20;;
82618;SDS011;72286;12.138;-68.936;2023-08-30T11:47:29;10.80;;;2.90;;
82618;SDS011;72286;12.138;-68.936;2023-08-30T11:51:07;10.60;;;2.40;;
82618;SDS011;72286;12.138;-68.936;2023-08-30T11:54:45;10.80;;;2.70;;
82618;SDS011;72286;12.138;-68.936;2023-08-30T11:58:26;10.30;;;2.10;;
82618;SDS011;72286;12.138;-68.936;2023-08-30T12:02:23;8.00;;;1.90;;
82618;SDS011;72286;12.138;-68.936;2023-08-30T12:05:45;6.70;;;2.10;;
82618;SDS011;72286;12.138;-68.936;2023-08-30T12:09:31;7.20;;;2.30;;
82618;SDS011;72286;12.138;-68.936;2023-08-30T12:13:18;9.50;;;1.90;;
82618;SDS011;72286;12.138;-68.936;2023-08-30T12:16:59;8.30;;;2.20;;
82618;SDS011;72286;12.138;-68.936;2023-08-30T12:20:36;12.70;;;2.20;;
82618;SDS011;72286;12.138;-68.936;2023-08-30T12:24:14;7.80;;;2.20;;
82618;SDS011;72286;12.138;-68.936;2023-08-30T12:27:52;7.10;;;2.00;;
82618;SDS011;72286;12.138;-68.936;2023-08-30T12:31:29;6.90;;;2.30;;
82618;SDS011;72286;12.138;-68.936;2023-08-30T12:35:08;11.20;;;2.90;;
82618;SDS011;72286;12.138;-68.936;2023-08-30T12:38:45;10.80;;;2.50;;
82618;SDS011;72286;12.138;-68.936;2023-08-30T12:42:23;11.90;;;2.50;;
82618;SDS011;72286;12.138;-68.936;2023-08-30T12:46:00;8.50;;;2.20;;
82618;SDS011;72286;12.138;-68.936;2023-08-30T12:49:39;11.10;;;2.10;;
82618;SDS011;72286;12.138;-68.936;2023-08-30T12:53:16;7.30;;;2.30;;
82618;SDS011;72286;12.138;-68.936;2023-08-30T12:56:54;11.00;;;2.30;;
82618;SDS011;72286;12.138;-68.936;2023-08-30T13:00:31;6.90;;;2.50;;
82618;SDS011;72286;12.138;-68.936;2023-08-30T13:04:10;9.30;;;2.30;;
82618;SDS011;72286;12.138;-68.936;2023-08-30T13:07:47;9.80;;;2.40;;
82618;SDS011;72286;12.138;-68.936;2023-08-30T13:11:25;8.60;;;2.30;;
82618;SDS011;72286;12.138;-68.936;2023-08-30T13:15:04;7.20;;;2.20;;
82618;SDS011;72286;12.138;-68.936;2023-08-30T13:18:41;5.50;;;1.60;;
82618;SDS011;72286;12.138;-68.936;2023-08-30T13:22:19;8.30;;;2.20;;
82618;SDS011;72286;12.138;-68.936;2023-08-30T13:25:57;10.60;;;2.20;;
82618;SDS011;72286;12.138;-68.936;2023-08-30T13:29:34;5.10;;;1.90;;
82618;SDS011;72286;12.138;-68.936;2023-08-30T13:33:12;8.30;;;2.10;;
82618;SDS011;72286;12.138;-68.936;2023-08-30T13:36:49;8.50;;;2.20;;
82618;SDS011;72286;12.138;-68.936;2023-08-30T13:40:28;5.90;;;1.90;;
82618;SDS011;72286;12.138;-68.936;2023-08-30T13:44:05;6.80;;;1.90;;
82618;SDS011;72286;12.138;-68.936;2023-08-30T13:47:43;5.50;;;1.70;;
82618;SDS011;72286;12.138;-68.936;2023-08-30T13:51:21;10.00;;;2.20;;
82618;SDS011;72286;12.138;-68.936;2023-08-30T13:54:59;6.00;;;2.20;;
82618;SDS011;72286;12.138;-68.936;2023-08-30T13:58:36;6.40;;;2.50;;
82618;SDS011;72286;12.138;-68.936;2023-08-30T14:02:14;8.90;;;2.30;;
82618;SDS011;72286;12.138;-68.936;2023-08-30T14:05:51;6.20;;;2.10;;
82618;SDS011;72286;12.138;-68.936;2023-08-30T14:09:30;7.20;;;2.20;;
82618;SDS011;72286;12.138;-68.936;2023-08-30T14:13:07;7.10;;;2.10;;
82618;SDS011;72286;12.138;-68.936;2023-08-30T14:16:45;5.60;;;2.00;;
82618;SDS011;72286;12.138;-68.936;2023-08-30T14:20:22;6.60;;;2.10;;
82618;SDS011;72286;12.138;-68.936;2023-08-30T14:24:01;6.90;;;2.30;;
82618;SDS011;72286;12.138;-68.936;2023-08-30T14:27:38;6.10;;;1.80;;
82618;SDS011;72286;12.138;-68.936;2023-08-30T14:31:16;6.80;;;1.90;;
82618;SDS011;72286;12.138;-68.936;2023-08-30T14:35:12;6.90;;;2.10;;
82618;SDS011;72286;12.138;-68.936;2023-08-30T14:38:31;6.00;;;1.90;;
82618;SDS011;72286;12.138;-68.936;2023-08-30T14:42:08;7.20;;;2.00;;
82618;SDS011;72286;12.138;-68.936;2023-08-30T14:45:46;5.20;;;1.90;;
82618;SDS011;72286;12.138;-68.936;2023-08-30T14:49:24;8.20;;;2.20;;
82618;SDS011;72286;12.138;-68.936;2023-08-30T14:53:02;5.40;;;1.50;;
82618;SDS011;72286;12.138;-68.936;2023-08-30T14:56:39;6.70;;;1.90;;
82618;SDS011;72286;12.138;-68.936;2023-08-30T15:00:17;4.80;;;1.70;;
82618;SDS011;72286;12.138;-68.936;2023-08-30T15:03:55;6.90;;;2.00;;
82618;SDS011;72286;12.138;-68.936;2023-08-30T15:07:33;5.50;;;1.70;;
82618;SDS011;72286;12.138;-68.936;2023-08-30T15:11:10;6.00;;;1.70;;
82618;SDS011;72286;12.138;-68.936;2023-08-30T15:14:48;7.00;;;2.00;;
82618;SDS011;72286;12.138;-68.936;2023-08-30T15:18:25;4.60;;;1.40;;
82618;SDS011;72286;12.138;-68.936;2023-08-30T15:22:03;7.30;;;1.90;;
82618;SDS011;72286;12.138;-68.936;2023-08-30T15:25:40;6.10;;;2.20;;
82618;SDS011;72286;12.138;-68.936;2023-08-30T15:29:19;4.90;;;1.80;;
82618;SDS011;72286;12.138;-68.936;2023-08-30T15:32:56;7.60;;;2.10;;
82618;SDS011;72286;12.138;-68.936;2023-08-30T15:36:34;9.60;;;2.50;;
82618;SDS011;72286;12.138;-68.936;2023-08-30T15:40:11;9.70;;;3.70;;
82618;SDS011;72286;12.138;-68.936;2023-08-30T15:43:49;7.40;;;2.20;;
82618;SDS011;72286;12.138;-68.936;2023-08-30T15:47:26;7.50;;;1.90;;
82618;SDS011;72286;12.138;-68.936;2023-08-30T15:51:05;7.90;;;1.80;;
82618;SDS011;72286;12.138;-68.936;2023-08-30T15:54:42;10.10;;;2.40;;
82618;SDS011;72286;12.138;-68.936;2023-08-30T15:58:20;8.30;;;2.80;;
82618;SDS011;72286;12.138;-68.936;2023-08-30T16:01:57;7.00;;;2.40;;
82618;SDS011;72286;12.138;-68.936;2023-08-30T16:05:36;6.50;;;2.10;;
82618;SDS011;72286;12.138;-68.936;2023-08-30T16:09:13;9.80;;;2.20;;
82618;SDS011;72286;12.138;-68.936;2023-08-30T16:12:51;8.30;;;2.00;;
82618;SDS011;72286;12.138;-68.936;2023-08-30T16:16:29;10.30;;;2.50;;
82618;SDS011;72286;12.138;-68.936;2023-08-30T16:20:07;7.00;;;2.00;;
82618;SDS011;72286;12.138;-68.936;2023-08-30T16:23:44;7.20;;;2.60;;
82618;SDS011;72286;12.138;-68.936;2023-08-30T16:27:22;10.00;;;2.20;;
82618;SDS011;72286;12.138;-68.936;2023-08-30T16:31:03;8.60;;;2.60;;
82618;SDS011;72286;12.138;-68.936;2023-08-30T16:34:41;9.80;;;2.50;;
82618;SDS011;72286;12.138;-68.936;2023-08-30T16:38:20;6.50;;;1.70;;
82618;SDS011;72286;12.138;-68.936;2023-08-30T16:41:58;6.10;;;1.90;;
82618;SDS011;72286;12.138;-68.936;2023-08-30T16:45:35;7.90;;;2.30;;
82618;SDS011;72286;12.138;-68.936;2023-08-30T16:49:13;7.90;;;2.30;;
82618;SDS011;72286;12.138;-68.936;2023-08-30T16:52:50;11.50;;;2.10;;
82618;SDS011;72286;12.138;-68.936;2023-08-30T16:56:29;8.70;;;2.30;;
82618;SDS011;72286;12.138;-68.936;2023-08-30T17:00:06;6.30;;;1.90;;
82618;SDS011;72286;12.138;-68.936;2023-08-30T17:03:45;5.90;;;2.20;;
82618;SDS011;72286;12.138;-68.936;2023-08-30T17:07:22;7.10;;;2.10;;
82618;SDS011;72286;12.138;-68.936;2023-08-30T17:11:04;6.30;;;1.70;;
82618;SDS011;72286;12.138;-68.936;2023-08-30T17:14:41;6.90;;;2.00;;
82618;SDS011;72286;12.138;-68.936;2023-08-30T17:18:19;5.50;;;2.30;;
82618;SDS011;72286;12.138;-68.936;2023-08-30T17:21:56;7.00;;;2.20;;
82618;SDS011;72286;12.138;-68.936;2023-08-30T17:25:35;7.70;;;2.20;;
82618;SDS011;72286;12.138;-68.936;2023-08-30T17:29:12;9.30;;;2.30;;
82618;SDS011;72286;12.138;-68.936;2023-08-30T17:32:50;8.20;;;2.10;;
82618;SDS011;72286;12.138;-68.936;2023-08-30T17:36:28;8.80;;;2.10;;
82618;SDS011;72286;12.138;-68.936;2023-08-30T17:40:06;11.20;;;3.20;;
82618;SDS011;72286;12.138;-68.936;2023-08-30T17:43:43;8.70;;;2.60;;
82618;SDS011;72286;12.138;-68.936;2023-08-30T17:47:41;4.50;;;1.90;;
82618;SDS011;72286;12.138;-68.936;2023-08-30T17:50:58;8.70;;;2.50;;
82618;SDS011;72286;12.138;-68.936;2023-08-30T17:54:37;9.60;;;2.10;;
82618;SDS011;72286;12.138;-68.936;2023-08-30T17:58:14;6.50;;;2.30;;
82618;SDS011;72286;12.138;-68.936;2023-08-30T18:01:52;6.10;;;2.50;;
82618;SDS011;72286;12.138;-68.936;2023-08-30T18:05:29;6.70;;;2.40;;
82618;SDS011;72286;12.138;-68.936;2023-08-30T18:09:07;6.50;;;2.10;;
82618;SDS011;72286;12.138;-68.936;2023-08-30T18:12:45;5.60;;;2.10;;
82618;SDS011;72286;12.138;-68.936;2023-08-30T18:16:23;6.80;;;1.90;;
82618;SDS011;72286;12.138;-68.936;2023-08-30T18:20:00;12.10;;;2.80;;
82618;SDS011;72286;12.138;-68.936;2023-08-30T18:23:40;5.60;;;2.10;;
82618;SDS011;72286;12.138;-68.936;2023-08-30T18:27:20;7.20;;;2.30;;
82618;SDS011;72286;12.138;-68.936;2023-08-30T18:30:58;9.10;;;2.60;;
82618;SDS011;72286;12.138;-68.936;2023-08-30T18:34:35;10.10;;;2.80;;
82618;SDS011;72286;12.138;-68.936;2023-08-30T18:38:14;8.60;;;2.60;;
82618;SDS011;72286;12.138;-68.936;2023-08-30T18:41:51;9.30;;;2.80;;
82618;SDS011;72286;12.138;-68.936;2023-08-30T18:45:29;6.60;;;2.40;;
82618;SDS011;72286;12.138;-68.936;2023-08-30T18:49:08;6.50;;;2.40;;
82618;SDS011;72286;12.138;-68.936;2023-08-30T18:52:47;13.00;;;2.70;;
82618;SDS011;72286;12.138;-68.936;2023-08-30T18:56:24;8.70;;;2.70;;
82618;SDS011;72286;12.138;-68.936;2023-08-30T19:00:02;8.90;;;2.90;;
82618;SDS011;72286;12.138;-68.936;2023-08-30T19:04:05;10.90;;;2.50;;
82618;SDS011;72286;12.138;-68.936;2023-08-30T19:07:24;8.30;;;2.50;;
82618;SDS011;72286;12.138;-68.936;2023-08-30T19:11:01;12.10;;;3.20;;
82618;SDS011;72286;12.138;-68.936;2023-08-30T19:14:40;8.30;;;3.60;;
82618;SDS011;72286;12.138;-68.936;2023-08-30T19:18:16;8.30;;;2.60;;
82618;SDS011;72286;12.138;-68.936;2023-08-30T19:21:54;10.10;;;6.00;;
82618;SDS011;72286;12.138;-68.936;2023-08-30T19:25:32;8.70;;;2.90;;
82618;SDS011;72286;12.138;-68.936;2023-08-30T19:29:10;6.20;;;2.90;;
82618;SDS011;72286;12.138;-68.936;2023-08-30T19:32:47;10.90;;;2.90;;
82618;SDS011;72286;12.138;-68.936;2023-08-30T19:36:25;9.40;;;2.70;;
82618;SDS011;72286;12.138;-68.936;2023-08-30T19:40:02;8.20;;;3.00;;
82618;SDS011;72286;12.138;-68.936;2023-08-30T19:43:43;8.90;;;3.30;;
82618;SDS011;72286;12.138;-68.936;2023-08-30T19:47:20;10.10;;;3.00;;
82618;SDS011;72286;12.138;-68.936;2023-08-30T19:50:58;6.80;;;2.70;;
82618;SDS011;72286;12.138;-68.936;2023-08-30T19:54:36;6.80;;;2.80;;
82618;SDS011;72286;12.138;-68.936;2023-08-30T19:58:14;8.30;;;2.80;;
82618;SDS011;72286;12.138;-68.936;2023-08-30T20:01:51;6.50;;;2.70;;
82618;SDS011;72286;12.138;-68.936;2023-08-30T20:05:30;8.80;;;3.10;;
82618;SDS011;72286;12.138;-68.936;2023-08-30T20:09:07;8.70;;;2.90;;
82618;SDS011;72286;12.138;-68.936;2023-08-30T20:12:45;7.70;;;3.20;;
82618;SDS011;72286;12.138;-68.936;2023-08-30T20:16:22;6.30;;;2.30;;
82618;SDS011;72286;12.138;-68.936;2023-08-30T20:20:00;7.20;;;2.80;;
82618;SDS011;72286;12.138;-68.936;2023-08-30T20:23:37;9.50;;;3.70;;
82618;SDS011;72286;12.138;-68.936;2023-08-30T20:27:15;8.70;;;2.90;;
82618;SDS011;72286;12.138;-68.936;2023-08-30T20:30:53;11.00;;;2.70;;
82618;SDS011;72286;12.138;-68.936;2023-08-30T20:34:32;4.50;;;2.10;;
82618;SDS011;72286;12.138;-68.936;2023-08-30T20:38:11;6.20;;;3.00;;
82618;SDS011;72286;12.138;-68.936;2023-08-30T20:41:50;7.60;;;2.60;;
82618;SDS011;72286;12.138;-68.936;2023-08-30T20:45:29;6.70;;;2.60;;
82618;SDS011;72286;12.138;-68.936;2023-08-30T20:49:08;5.40;;;2.60;;
82618;SDS011;72286;12.138;-68.936;2023-08-30T20:52:45;9.30;;;3.00;;
82618;SDS011;72286;12.138;-68.936;2023-08-30T20:56:23;7.20;;;2.90;;
82618;SDS011;72286;12.138;-68.936;2023-08-30T21:00:00;13.70;;;3.10;;
82618;SDS011;72286;12.138;-68.936;2023-08-30T21:03:38;9.40;;;2.70;;
82618;SDS011;72286;12.138;-68.936;2023-08-30T21:07:15;8.80;;;3.60;;
82618;SDS011;72286;12.138;-68.936;2023-08-30T21:10:01;5.20;;;2.80;;
82618;SDS011;72286;12.138;-68.936;2023-08-30T21:13:39;11.60;;;3.40;;
82618;SDS011;72286;12.138;-68.936;2023-08-30T21:17:17;9.90;;;3.30;;
82618;SDS011;72286;12.138;-68.936;2023-08-30T21:20:57;10.00;;;3.10;;